Ana Sayfa
METAR-TAF:

METAR-TAF

Havaalanları :

Darwin, Avustralya

Enlem: 12-24S, Boylam: 130-52E, yükseklik: 31 m

Güncel hava durumu gözlemi

Rapor saat 20:00 UTC de 27 dakika önce yapıldı.
Rüzgar batıdan 9 kt
Sıcaklık 29°C
Nem 79%
Basınç 1007 hPa
Görüş mesafesi 10 km veya daha fazla
1900 ft yükseklikte az bulutlu

METAR: YPDN 182000Z 27009KT 9999 FEW019 29/25 Q1007

Saat: 05:57 (20:27 UTC)

Tahmin

Rapor saat 17:12 UTC de 3 saat ve 15 dakika önce yapıldı.
Ayın 18'si saat 18 UTC'den ayın 20'si saat 00 UTC'ye kadar geçerli Tahmin
Rüzgar değişken yönden 15 kt ve 25 kt'a kadar ani rüzgarlar
Görüş mesafesi: 3000 m
2500 ft yükseklikte parçalı bulutlu
1500 ft yükseklikte parçalı çok bulutlu
sağanak yağmurlar

TAF: YPDN 181712Z 1818/2000 28012KT 9999 SCT025 INTER 1823/1908 VRB15G25KT 3000 SHRA BKN015

4.000'den fazla havaalanı için hava durumu gözlemleri ve tahminleri (METAR ve TAF raporları).

Kullanılabilir istasyonlar harita üzerinde sarı ve kırmızı noktalarla gösterilir.

İstasyonun adını görmek için fareyi noktanın üzerinde gezdirin.

Sonrasında hava gözlem ve tahminlerini görmek için tıklayın.

Haritayı değiştirmek için: yaklaştırmak için siyah artı işaretli yeşil düğmeye ve uzaklaştırmak için de eksi işaretli düğmeye hızla tıklayın; bitişik haritalar için yeşil okları kullanın.


METAR-TAF: